createdAt,value
2023-01-27T00:00:18.811Z,21.30
2023-01-27T00:00:41.511Z,21.42
2023-01-27T00:01:04.364Z,20.77
2023-01-27T00:01:27.093Z,20.75
2023-01-27T00:01:51.313Z,20.98
2023-01-27T00:02:14.190Z,19.33
2023-01-27T00:02:38.453Z,19.92
2023-01-27T00:03:01.346Z,20.10
2023-01-27T00:03:24.149Z,19.48
2023-01-27T00:03:46.938Z,19.90
2023-01-27T00:04:09.775Z,20.15
2023-01-27T00:04:32.733Z,23.25
2023-01-27T00:04:55.536Z,19.48
2023-01-27T00:05:18.431Z,19.23
2023-01-27T00:05:41.220Z,21.23
2023-01-27T00:06:06.706Z,19.58
2023-01-27T00:06:29.603Z,19.75
2023-01-27T00:06:52.335Z,19.98
2023-01-27T00:07:15.096Z,18.92
2023-01-27T00:07:37.823Z,18.20
2023-01-27T00:08:00.643Z,18.95
2023-01-27T00:08:23.384Z,18.25
2023-01-27T00:08:46.121Z,19.42
2023-01-27T00:09:08.842Z,19.17
2023-01-27T00:09:31.701Z,18.40
2023-01-27T00:09:54.455Z,18.92
2023-01-27T00:10:18.517Z,21.10
2023-01-27T00:10:41.290Z,20.33
2023-01-27T00:11:22.486Z,20.65
2023-01-27T00:12:03.908Z,19.40
2023-01-27T00:12:46.787Z,19.52
2023-01-27T00:13:29.452Z,18.00
2023-01-27T00:13:52.192Z,19.83
2023-01-27T00:14:14.905Z,20.25
2023-01-27T00:14:37.616Z,19.23
2023-01-27T00:15:00.421Z,17.98
2023-01-27T00:15:23.207Z,17.05
2023-01-27T00:15:45.985Z,18.08
2023-01-27T00:16:08.943Z,17.63
2023-01-27T00:16:31.711Z,18.45
2023-01-27T00:16:54.473Z,17.58
2023-01-27T00:17:17.295Z,18.55
2023-01-27T00:17:40.032Z,19.77
2023-01-27T00:18:02.761Z,16.77
2023-01-27T00:18:26.169Z,17.00
2023-01-27T00:18:48.982Z,18.33
2023-01-27T00:19:11.800Z,17.55
2023-01-27T00:19:34.541Z,16.77
2023-01-27T00:19:57.317Z,16.35
2023-01-27T00:20:38.531Z,17.45
2023-01-27T00:21:19.970Z,18.77
2023-01-27T00:22:01.145Z,17.80
2023-01-27T00:22:42.754Z,17.80
2023-01-27T00:23:24.296Z,17.23
2023-01-27T00:24:05.761Z,18.88
2023-01-27T00:24:37.961Z,17.95
2023-01-27T00:25:00.768Z,17.60
2023-01-27T00:25:23.562Z,17.50
2023-01-27T00:25:50.600Z,17.30
2023-01-27T00:26:15.087Z,17.67
2023-01-27T00:26:37.780Z,17.02
2023-01-27T00:27:00.519Z,17.65
2023-01-27T00:27:24.269Z,17.70
2023-01-27T00:27:48.501Z,16.77
2023-01-27T00:28:23.631Z,18.05
2023-01-27T00:28:47.121Z,16.33
2023-01-27T00:29:09.905Z,16.80
2023-01-27T00:29:32.631Z,17.70
2023-01-27T00:29:55.760Z,17.70
2023-01-27T00:30:18.587Z,19.88
2023-01-27T00:30:41.363Z,19.08
2023-01-27T00:31:04.547Z,18.65
2023-01-27T00:31:46.187Z,16.83
2023-01-27T00:32:28.669Z,17.05
2023-01-27T00:33:09.861Z,18.10
2023-01-27T00:33:32.683Z,16.65
2023-01-27T00:33:56.333Z,14.52
2023-01-27T00:34:19.071Z,15.02
2023-01-27T00:34:42.051Z,14.27
2023-01-27T00:35:05.528Z,14.85
2023-01-27T00:35:28.265Z,15.40
2023-01-27T00:35:50.947Z,15.20
2023-01-27T00:36:13.650Z,15.88
2023-01-27T00:36:37.019Z,15.82
2023-01-27T00:36:59.779Z,15.68
2023-01-27T00:37:22.581Z,15.52
2023-01-27T00:37:45.370Z,14.55
2023-01-27T00:38:08.146Z,16.35
2023-01-27T00:38:32.845Z,16.15
2023-01-27T00:38:55.597Z,16.17
2023-01-27T00:39:18.372Z,15.93
2023-01-27T00:39:41.179Z,15.52
2023-01-27T00:40:04.103Z,14.60
2023-01-27T00:40:26.806Z,14.70
2023-01-27T00:41:09.466Z,14.23
2023-01-27T00:41:34.445Z,16.17
2023-01-27T00:41:57.338Z,14.77
2023-01-27T00:42:20.103Z,14.35
2023-01-27T00:42:42.769Z,15.63
2023-01-27T00:43:06.976Z,14.90
2023-01-27T00:43:29.753Z,16.25
2023-01-27T00:43:53.446Z,15.32
2023-01-27T00:44:16.229Z,14.98
2023-01-27T00:44:38.974Z,14.88
2023-01-27T00:45:20.652Z,15.00
2023-01-27T00:45:49.472Z,14.93
2023-01-27T00:46:12.193Z,14.10
2023-01-27T00:46:35.053Z,14.57
2023-01-27T00:46:57.842Z,14.38
2023-01-27T00:47:20.551Z,13.85
2023-01-27T00:47:44.007Z,14.63
2023-01-27T00:48:07.266Z,13.70
2023-01-27T00:48:30.018Z,14.10
2023-01-27T00:48:52.838Z,14.05
2023-01-27T00:49:15.627Z,13.20
2023-01-27T00:49:38.475Z,13.30
2023-01-27T00:50:01.308Z,14.38
2023-01-27T00:50:24.140Z,14.45
2023-01-27T00:50:46.890Z,15.13
2023-01-27T00:51:09.625Z,13.77
2023-01-27T00:51:32.446Z,13.05
2023-01-27T00:51:57.780Z,12.95
2023-01-27T00:52:20.561Z,12.75
2023-01-27T00:52:43.399Z,12.98
2023-01-27T00:53:06.183Z,13.60
2023-01-27T00:53:28.981Z,13.57
2023-01-27T00:53:51.723Z,13.45
2023-01-27T00:54:14.936Z,12.73
2023-01-27T00:54:37.706Z,13.93
2023-01-27T00:55:00.480Z,13.13
2023-01-27T00:55:23.251Z,12.90
2023-01-27T00:55:47.778Z,13.15
2023-01-27T00:56:10.576Z,13.88
2023-01-27T00:56:33.378Z,14.07
2023-01-27T00:56:56.268Z,14.13
2023-01-27T00:57:19.564Z,13.52
2023-01-27T00:57:42.282Z,12.38
2023-01-27T00:58:06.594Z,14.50
2023-01-27T00:58:29.670Z,14.80
2023-01-27T00:58:52.386Z,15.38
2023-01-27T00:59:15.102Z,16.42
2023-01-27T00:59:37.866Z,15.55
2023-01-27T01:00:00.677Z,15.38
2023-01-27T01:00:23.640Z,17.35
2023-01-27T01:00:46.326Z,15.15
2023-01-27T01:01:10.742Z,15.00
2023-01-27T01:01:34.361Z,15.65
2023-01-27T01:01:57.056Z,15.27
2023-01-27T01:02:19.844Z,15.85
2023-01-27T01:02:42.670Z,14.93
2023-01-27T01:03:05.419Z,15.13
2023-01-27T01:03:31.743Z,14.52
2023-01-27T01:03:54.466Z,15.60
2023-01-27T01:04:17.243Z,17.30
2023-01-27T01:04:39.941Z,16.52
2023-01-27T01:05:02.658Z,16.00
2023-01-27T01:05:25.406Z,16.17
2023-01-27T01:05:48.092Z,15.70
2023-01-27T01:06:12.849Z,15.68
2023-01-27T01:06:35.571Z,16.40
2023-01-27T01:06:58.351Z,15.75
2023-01-27T01:07:21.111Z,15.25
2023-01-27T01:07:43.854Z,15.60
2023-01-27T01:08:06.610Z,14.45
2023-01-27T01:08:30.025Z,14.55
2023-01-27T01:08:52.800Z,15.35
2023-01-27T01:09:15.581Z,15.85
2023-01-27T01:09:38.365Z,16.05
2023-01-27T01:10:01.139Z,14.63
2023-01-27T01:10:23.891Z,14.73
2023-01-27T01:10:46.589Z,16.60
2023-01-27T01:11:13.892Z,15.48
2023-01-27T01:11:36.640Z,14.18
2023-01-27T01:11:59.480Z,14.40
2023-01-27T01:12:22.290Z,15.18
2023-01-27T01:12:45.390Z,14.18
2023-01-27T01:13:12.198Z,15.13
2023-01-27T01:13:34.908Z,15.20
2023-01-27T01:13:57.716Z,14.07
2023-01-27T01:14:20.597Z,15.00
2023-01-27T01:14:43.481Z,13.32
2023-01-27T01:15:08.264Z,14.52
2023-01-27T01:15:31.077Z,14.23
2023-01-27T01:15:53.817Z,13.07
2023-01-27T01:16:18.575Z,13.43
2023-01-27T01:16:41.508Z,14.18
2023-01-27T01:17:04.266Z,12.45
2023-01-27T01:17:26.999Z,13.80
2023-01-27T01:17:49.781Z,13.82
2023-01-27T01:18:12.550Z,14.48
2023-01-27T01:18:35.374Z,13.82
2023-01-27T01:19:01.041Z,14.20
2023-01-27T01:19:24.392Z,12.88
2023-01-27T01:19:47.121Z,13.75
2023-01-27T01:20:11.731Z,13.43
2023-01-27T01:20:36.496Z,12.85
2023-01-27T01:20:59.142Z,12.90
2023-01-27T01:21:21.858Z,13.45
2023-01-27T01:21:44.550Z,14.25
2023-01-27T01:22:07.279Z,14.00
2023-01-27T01:22:30.231Z,14.07
2023-01-27T01:22:52.985Z,13.40
2023-01-27T01:23:15.801Z,13.48
2023-01-27T01:23:39.445Z,13.10
2023-01-27T01:24:02.202Z,13.68
2023-01-27T01:24:26.214Z,12.90
2023-01-27T01:24:48.975Z,13.25
2023-01-27T01:25:11.821Z,12.82
2023-01-27T01:25:34.584Z,13.70
2023-01-27T01:25:57.729Z,12.32
2023-01-27T01:26:20.504Z,13.60
2023-01-27T01:26:43.256Z,14.32
2023-01-27T01:27:06.061Z,12.55
2023-01-27T01:27:29.625Z,13.20
2023-01-27T01:27:52.316Z,13.60
2023-01-27T01:28:16.585Z,13.45
2023-01-27T01:28:39.625Z,13.27
2023-01-27T01:29:02.318Z,13.90
2023-01-27T01:29:25.261Z,14.02
2023-01-27T01:29:48.042Z,14.32
2023-01-27T01:30:12.448Z,15.07
2023-01-27T01:30:35.504Z,14.60
2023-01-27T01:31:04.334Z,14.43
2023-01-27T01:31:27.287Z,14.18
2023-01-27T01:31:51.590Z,14.70
2023-01-27T01:32:14.704Z,13.40
2023-01-27T01:32:37.465Z,14.40
2023-01-27T01:33:00.226Z,13.35
2023-01-27T01:33:22.978Z,13.93
2023-01-27T01:33:45.872Z,13.98
2023-01-27T01:34:09.891Z,14.25
2023-01-27T01:34:32.610Z,13.43
2023-01-27T01:34:55.295Z,12.77
2023-01-27T01:35:18.074Z,13.65
2023-01-27T01:35:40.824Z,13.82
2023-01-27T01:36:05.501Z,13.48
2023-01-27T01:36:28.311Z,12.70
2023-01-27T01:36:51.063Z,14.15
2023-01-27T01:37:13.803Z,13.68
2023-01-27T01:37:36.520Z,12.50
2023-01-27T01:37:59.271Z,12.32
2023-01-27T01:38:22.027Z,11.48
2023-01-27T01:38:44.761Z,11.55
2023-01-27T01:39:07.542Z,11.88
2023-01-27T01:39:30.751Z,12.90
2023-01-27T01:39:53.482Z,13.52
2023-01-27T01:40:16.271Z,12.90
2023-01-27T01:40:41.845Z,13.13
2023-01-27T01:41:04.882Z,13.52
2023-01-27T01:41:27.848Z,12.25
2023-01-27T01:41:50.585Z,12.13
2023-01-27T01:42:13.378Z,12.52
2023-01-27T01:42:56.224Z,13.35
2023-01-27T01:43:23.076Z,11.75
2023-01-27T01:43:45.793Z,12.80
2023-01-27T01:44:22.281Z,11.63
2023-01-27T01:44:46.016Z,11.70
2023-01-27T01:45:49.862Z,12.20
2023-01-27T01:46:12.792Z,12.63
2023-01-27T01:46:35.930Z,11.43
2023-01-27T01:46:58.810Z,11.38
2023-01-27T01:47:21.539Z,12.65
2023-01-27T01:47:46.700Z,12.18
2023-01-27T01:48:11.559Z,11.63
2023-01-27T01:48:36.022Z,11.82
2023-01-27T01:48:59.755Z,12.27
2023-01-27T01:49:24.526Z,12.30
2023-01-27T01:49:47.426Z,12.07
2023-01-27T01:50:10.918Z,11.85
2023-01-27T01:50:33.790Z,12.27
2023-01-27T01:50:59.355Z,13.13
2023-01-27T01:51:23.240Z,13.43
2023-01-27T01:51:46.755Z,12.32
2023-01-27T01:52:11.067Z,12.43
2023-01-27T01:52:33.711Z,13.27
2023-01-27T01:52:56.500Z,13.00
2023-01-27T01:53:19.328Z,12.38
2023-01-27T01:53:45.037Z,12.45
2023-01-27T01:54:09.804Z,14.07
2023-01-27T01:54:33.913Z,13.57
2023-01-27T01:54:56.868Z,14.27
2023-01-27T01:55:19.620Z,14.00
2023-01-27T01:55:42.358Z,14.75
2023-01-27T01:56:08.665Z,14.30
2023-01-27T01:56:33.305Z,14.23
2023-01-27T01:56:57.855Z,14.88
2023-01-27T01:57:23.193Z,14.95
2023-01-27T01:57:46.136Z,14.93
2023-01-27T01:58:09.268Z,15.25
2023-01-27T01:58:33.509Z,15.68
2023-01-27T01:58:56.526Z,14.60
2023-01-27T01:59:21.002Z,14.20
2023-01-27T01:59:45.709Z,15.30
2023-01-27T02:00:10.773Z,14.88
2023-01-27T02:00:33.786Z,15.18
2023-01-27T02:00:56.721Z,15.65
2023-01-27T02:01:19.627Z,16.23
2023-01-27T02:01:42.421Z,16.05
2023-01-27T02:02:09.491Z,15.02
2023-01-27T02:02:32.429Z,17.00
2023-01-27T02:02:55.281Z,16.70
2023-01-27T02:03:18.066Z,15.77
2023-01-27T02:03:41.605Z,16.83
2023-01-27T02:04:05.844Z,16.65
2023-01-27T02:04:30.231Z,16.92
2023-01-27T02:04:55.374Z,15.93
2023-01-27T02:05:19.181Z,15.98
2023-01-27T02:05:43.765Z,16.50
2023-01-27T02:06:06.801Z,16.52
2023-01-27T02:06:29.668Z,15.65
2023-01-27T02:06:55.359Z,16.45
2023-01-27T02:07:20.384Z,17.20
2023-01-27T02:07:46.105Z,17.50
2023-01-27T02:08:12.088Z,17.67
2023-01-27T02:08:36.211Z,16.83
2023-01-27T02:08:59.050Z,16.67
2023-01-27T02:09:21.980Z,17.50
2023-01-27T02:09:44.831Z,17.35
2023-01-27T02:10:08.066Z,17.10
2023-01-27T02:10:30.906Z,15.80
2023-01-27T02:10:54.623Z,17.45
2023-01-27T02:11:17.301Z,16.38
2023-01-27T02:11:40.245Z,15.93
2023-01-27T02:12:03.015Z,17.60
2023-01-27T02:12:25.710Z,16.67
2023-01-27T02:12:48.781Z,16.55
2023-01-27T02:13:11.559Z,16.27
2023-01-27T02:13:35.741Z,16.23
2023-01-27T02:14:01.929Z,16.10
2023-01-27T02:14:24.787Z,17.35
2023-01-27T02:14:47.543Z,17.92
2023-01-27T02:15:12.276Z,17.27
2023-01-27T02:15:35.249Z,16.60
2023-01-27T02:15:58.066Z,15.57
2023-01-27T02:16:20.827Z,16.58
2023-01-27T02:16:43.778Z,17.20
2023-01-27T02:17:06.480Z,17.40
2023-01-27T02:17:29.180Z,18.52
2023-01-27T02:17:51.939Z,16.75
2023-01-27T02:18:15.220Z,17.30
2023-01-27T02:18:38.941Z,17.52
2023-01-27T02:19:01.603Z,17.67
2023-01-27T02:19:27.682Z,16.67
2023-01-27T02:19:54.291Z,16.83
2023-01-27T02:20:20.429Z,17.02
2023-01-27T02:20:44.515Z,15.90
2023-01-27T02:21:07.465Z,16.10
2023-01-27T02:21:30.162Z,16.67
2023-01-27T02:21:53.105Z,16.35
2023-01-27T02:22:18.108Z,17.45
2023-01-27T02:22:43.620Z,17.30
2023-01-27T02:23:12.621Z,16.85
2023-01-27T02:23:44.667Z,16.52
2023-01-27T02:24:12.434Z,17.23
2023-01-27T02:24:37.995Z,17.02
2023-01-27T02:25:02.557Z,18.25
2023-01-27T02:25:28.982Z,17.50
2023-01-27T02:25:55.045Z,16.63
2023-01-27T02:26:19.645Z,17.13
2023-01-27T02:26:43.908Z,16.42
2023-01-27T02:27:06.650Z,16.75
2023-01-27T02:27:29.457Z,17.42
2023-01-27T02:27:52.248Z,17.85
2023-01-27T02:28:14.997Z,17.65
2023-01-27T02:28:37.759Z,17.40
2023-01-27T02:29:02.791Z,17.85
2023-01-27T02:29:25.605Z,17.48
2023-01-27T02:29:48.351Z,17.00
2023-01-27T02:30:12.112Z,17.10
2023-01-27T02:30:34.992Z,17.27
2023-01-27T02:30:57.976Z,17.23
2023-01-27T02:31:20.939Z,18.50
2023-01-27T02:31:43.917Z,17.83
2023-01-27T02:32:06.890Z,17.08
2023-01-27T02:32:29.785Z,18.38
2023-01-27T02:32:52.513Z,20.50
2023-01-27T02:33:15.765Z,20.85
2023-01-27T02:33:38.570Z,20.95
2023-01-27T02:34:02.915Z,20.08
2023-01-27T02:34:27.540Z,20.15
2023-01-27T02:34:50.271Z,18.92
2023-01-27T02:35:16.163Z,19.10
2023-01-27T02:35:42.109Z,19.67
2023-01-27T02:36:08.018Z,20.13
2023-01-27T02:36:31.708Z,19.17
2023-01-27T02:36:56.251Z,17.88
2023-01-27T02:37:19.136Z,17.63
2023-01-27T02:37:41.949Z,17.55
2023-01-27T02:38:04.796Z,18.30
2023-01-27T02:38:28.449Z,18.50
2023-01-27T02:38:52.915Z,19.08
2023-01-27T02:39:15.972Z,17.88
2023-01-27T02:39:40.042Z,17.45
2023-01-27T02:40:02.730Z,17.98
2023-01-27T02:40:25.507Z,17.45
2023-01-27T02:40:49.311Z,17.33
2023-01-27T02:41:16.501Z,18.73
2023-01-27T02:41:40.275Z,19.45
2023-01-27T02:42:03.065Z,18.80
2023-01-27T02:42:28.360Z,19.08
2023-01-27T02:42:51.246Z,19.00
2023-01-27T02:43:14.023Z,17.92
2023-01-27T02:43:36.848Z,19.25
2023-01-27T02:44:02.096Z,18.30
2023-01-27T02:44:24.854Z,17.88
2023-01-27T02:44:47.704Z,16.80
2023-01-27T02:45:11.430Z,17.95
2023-01-27T02:45:34.351Z,17.17
2023-01-27T02:45:57.126Z,17.33
2023-01-27T02:46:20.048Z,18.73
2023-01-27T02:46:43.397Z,18.38
2023-01-27T02:47:06.222Z,17.13
2023-01-27T02:47:29.089Z,18.08
2023-01-27T02:47:51.858Z,17.30
2023-01-27T02:48:14.761Z,19.00
2023-01-27T02:48:37.659Z,18.58
2023-01-27T02:49:00.420Z,16.98
2023-01-27T02:49:23.125Z,16.20
2023-01-27T02:49:45.840Z,17.77
2023-01-27T02:50:10.516Z,18.20
2023-01-27T02:50:33.216Z,18.38
2023-01-27T02:50:55.926Z,17.98
2023-01-27T02:51:18.645Z,18.25
2023-01-27T02:51:41.375Z,17.57
2023-01-27T02:52:04.357Z,17.52
2023-01-27T02:52:27.146Z,16.90
2023-01-27T02:52:50.060Z,16.60
2023-01-27T02:53:13.482Z,16.42
2023-01-27T02:53:36.248Z,16.65
2023-01-27T02:53:59.174Z,17.55
2023-01-27T02:54:21.942Z,17.52
2023-01-27T02:54:44.635Z,18.10
2023-01-27T02:55:09.557Z,18.45
2023-01-27T02:55:32.385Z,18.13
2023-01-27T02:55:55.119Z,18.58
2023-01-27T02:56:19.624Z,18.55
2023-01-27T02:56:42.421Z,19.17
2023-01-27T02:57:05.246Z,17.42
2023-01-27T02:57:28.012Z,17.23
2023-01-27T02:57:50.876Z,17.05
2023-01-27T02:58:16.545Z,17.33
2023-01-27T02:58:39.288Z,17.55
2023-01-27T02:59:02.072Z,18.90
2023-01-27T02:59:25.012Z,18.58
2023-01-27T02:59:48.036Z,19.25
2023-01-27T03:00:14.182Z,18.60
2023-01-27T03:00:37.012Z,18.52
2023-01-27T03:00:59.766Z,19.38
2023-01-27T03:01:22.832Z,18.02
2023-01-27T03:01:45.712Z,17.27
2023-01-27T03:02:08.743Z,17.95
2023-01-27T03:02:31.629Z,18.02
2023-01-27T03:02:54.450Z,18.45
2023-01-27T03:03:17.252Z,18.55
2023-01-27T03:03:44.402Z,18.17
2023-01-27T03:04:08.867Z,18.00
2023-01-27T03:04:31.684Z,17.58
2023-01-27T03:04:55.275Z,18.05
2023-01-27T03:05:18.215Z,18.13
2023-01-27T03:05:41.188Z,16.92
2023-01-27T03:06:04.169Z,16.80
2023-01-27T03:06:27.022Z,16.98
2023-01-27T03:06:49.802Z,17.95
2023-01-27T03:07:12.515Z,17.50
2023-01-27T03:07:35.219Z,18.25
2023-01-27T03:07:57.959Z,17.35
2023-01-27T03:08:20.767Z,18.02
2023-01-27T03:08:43.706Z,19.13
2023-01-27T03:09:06.531Z,18.55
2023-01-27T03:09:29.243Z,17.42
2023-01-27T03:09:52.001Z,18.33
2023-01-27T03:10:14.928Z,18.85
2023-01-27T03:10:37.725Z,19.08
2023-01-27T03:11:00.427Z,18.90
2023-01-27T03:11:43.435Z,19.52
2023-01-27T03:12:21.499Z,18.45
2023-01-27T03:12:44.943Z,19.23
2023-01-27T03:13:07.744Z,18.02
2023-01-27T03:13:30.505Z,17.95
2023-01-27T03:13:53.266Z,17.08
2023-01-27T03:14:16.076Z,18.65
2023-01-27T03:14:57.444Z,18.75
2023-01-27T03:15:39.306Z,18.42
2023-01-27T03:16:20.665Z,17.35
2023-01-27T03:17:02.034Z,17.70
2023-01-27T03:17:43.546Z,18.35
2023-01-27T03:18:16.037Z,17.58
2023-01-27T03:18:38.850Z,17.77
2023-01-27T03:19:01.629Z,16.88
2023-01-27T03:19:24.415Z,19.42
2023-01-27T03:19:53.534Z,16.92
2023-01-27T03:20:16.636Z,17.90
2023-01-27T03:20:40.075Z,18.92
2023-01-27T03:21:03.805Z,17.90
2023-01-27T03:21:26.575Z,18.48
2023-01-27T03:21:52.930Z,18.77
2023-01-27T03:22:15.771Z,19.00
2023-01-27T03:22:38.545Z,18.88
2023-01-27T03:23:01.334Z,17.75
2023-01-27T03:23:24.292Z,18.25
2023-01-27T03:23:49.332Z,17.52
2023-01-27T03:24:12.465Z,18.88
2023-01-27T03:24:35.216Z,18.08
2023-01-27T03:24:57.973Z,18.13
2023-01-27T03:25:20.837Z,20.42
2023-01-27T03:25:43.698Z,18.95
2023-01-27T03:26:07.256Z,18.90
2023-01-27T03:26:31.475Z,18.83
2023-01-27T03:26:54.251Z,18.50
2023-01-27T03:27:17.036Z,17.83
2023-01-27T03:27:39.781Z,16.98
2023-01-27T03:28:02.572Z,18.10
2023-01-27T03:28:25.480Z,19.00
2023-01-27T03:29:08.112Z,19.08
2023-01-27T03:29:49.351Z,17.45
2023-01-27T03:30:12.315Z,19.08
2023-01-27T03:30:35.140Z,18.35
2023-01-27T03:31:01.281Z,18.70
2023-01-27T03:31:24.415Z,18.45
2023-01-27T03:31:47.174Z,19.80
2023-01-27T03:32:09.895Z,20.52
2023-01-27T03:32:32.756Z,17.60
2023-01-27T03:32:57.635Z,18.20
2023-01-27T03:33:21.144Z,18.48
2023-01-27T03:33:44.135Z,20.13
2023-01-27T03:34:06.927Z,19.08
2023-01-27T03:34:29.991Z,19.50
2023-01-27T03:34:52.820Z,19.05
2023-01-27T03:35:15.762Z,19.45
2023-01-27T03:35:48.570Z,18.80
2023-01-27T03:36:30.023Z,18.15
2023-01-27T03:37:11.518Z,20.05
2023-01-27T03:37:53.130Z,20.00
2023-01-27T03:38:34.689Z,19.35
2023-01-27T03:39:16.098Z,19.83
2023-01-27T03:39:57.570Z,18.85
2023-01-27T03:40:38.873Z,19.33
2023-01-27T03:41:22.697Z,19.60
2023-01-27T03:42:05.559Z,19.58
2023-01-27T03:42:47.083Z,18.65
2023-01-27T03:43:28.611Z,19.15
2023-01-27T03:44:10.146Z,19.50
2023-01-27T03:44:51.779Z,17.70
2023-01-27T03:45:33.494Z,19.70
2023-01-27T03:46:15.088Z,19.13
2023-01-27T03:46:37.966Z,19.20
2023-01-27T03:47:00.831Z,18.48
2023-01-27T03:47:24.374Z,17.70
2023-01-27T03:47:47.101Z,19.63
2023-01-27T03:48:10.114Z,18.88
2023-01-27T03:48:32.864Z,19.40
2023-01-27T03:48:56.332Z,18.90
2023-01-27T03:49:19.235Z,18.48
2023-01-27T03:49:41.936Z,19.80
2023-01-27T03:50:11.395Z,18.42
2023-01-27T03:50:43.393Z,18.27
2023-01-27T03:51:07.705Z,18.30
2023-01-27T03:51:30.528Z,18.60
2023-01-27T03:51:53.306Z,19.85
2023-01-27T03:52:16.140Z,19.17
2023-01-27T03:52:38.892Z,18.35
2023-01-27T03:53:04.810Z,18.23
2023-01-27T03:53:27.568Z,18.75
2023-01-27T03:53:50.835Z,19.15
2023-01-27T03:54:13.792Z,19.42
2023-01-27T03:54:36.598Z,18.70
2023-01-27T03:54:59.321Z,19.08
2023-01-27T03:55:23.398Z,17.77
2023-01-27T03:55:47.058Z,18.13
2023-01-27T03:56:09.773Z,18.52
2023-01-27T03:56:32.550Z,19.00
2023-01-27T03:56:56.649Z,18.35
2023-01-27T03:57:19.555Z,18.90
2023-01-27T03:57:42.250Z,19.33
2023-01-27T03:58:19.920Z,17.85
2023-01-27T03:58:42.764Z,19.75
2023-01-27T03:59:05.500Z,19.13
2023-01-27T03:59:28.270Z,18.58
2023-01-27T03:59:51.018Z,18.70
2023-01-27T04:00:15.252Z,18.77
2023-01-27T04:00:38.446Z,18.95
2023-01-27T04:01:02.614Z,19.42
2023-01-27T04:01:25.427Z,19.40
2023-01-27T04:01:48.265Z,19.05
2023-01-27T04:02:29.801Z,18.52
2023-01-27T04:03:11.361Z,18.38
2023-01-27T04:03:54.474Z,19.92
2023-01-27T04:04:36.268Z,18.38
2023-01-27T04:05:17.819Z,19.52
2023-01-27T04:05:59.381Z,17.50
2023-01-27T04:06:42.584Z,17.77
2023-01-27T04:07:05.453Z,18.92
2023-01-27T04:07:28.204Z,18.77
2023-01-27T04:07:50.895Z,19.33
2023-01-27T04:08:13.640Z,19.48
2023-01-27T04:08:36.381Z,18.65
2023-01-27T04:08:59.267Z,19.83
2023-01-27T04:09:22.915Z,19.27
2023-01-27T04:09:45.783Z,18.15
2023-01-27T04:10:10.258Z,18.77
2023-01-27T04:10:33.135Z,18.60
2023-01-27T04:11:21.029Z,18.85
2023-01-27T04:11:55.985Z,20.30
2023-01-27T04:12:20.248Z,19.90
2023-01-27T04:12:42.981Z,19.27
2023-01-27T04:13:06.111Z,19.02
2023-01-27T04:13:28.839Z,18.65
2023-01-27T04:13:51.667Z,19.67
2023-01-27T04:14:14.573Z,19.27
2023-01-27T04:14:38.462Z,19.42
2023-01-27T04:15:01.213Z,18.58
2023-01-27T04:15:24.001Z,18.90
2023-01-27T04:15:46.890Z,20.30
2023-01-27T04:16:09.642Z,19.92
2023-01-27T04:16:32.770Z,20.30
2023-01-27T04:16:57.374Z,19.98
2023-01-27T04:17:20.150Z,21.17
2023-01-27T04:17:42.896Z,19.95
2023-01-27T04:18:05.641Z,19.40
2023-01-27T04:18:28.397Z,17.60
2023-01-27T04:18:51.108Z,17.80
2023-01-27T04:19:14.003Z,17.92
2023-01-27T04:19:36.816Z,20.23
2023-01-27T04:19:59.501Z,18.60
2023-01-27T04:20:22.251Z,18.38
2023-01-27T04:20:44.966Z,18.90
2023-01-27T04:21:07.699Z,17.75
2023-01-27T04:21:30.761Z,19.27
2023-01-27T04:21:53.524Z,20.23
2023-01-27T04:22:16.582Z,19.65
2023-01-27T04:22:40.243Z,19.80
2023-01-27T04:23:02.997Z,19.85
2023-01-27T04:23:25.689Z,19.88
2023-01-27T04:23:48.414Z,20.80
2023-01-27T04:24:22.729Z,19.80
2023-01-27T04:24:45.559Z,19.65
2023-01-27T04:25:11.084Z,19.70
2023-01-27T04:25:35.350Z,19.42
2023-01-27T04:26:00.534Z,20.23
2023-01-27T04:26:23.379Z,19.02
2023-01-27T04:26:46.210Z,19.35
2023-01-27T04:27:09.733Z,19.85
2023-01-27T04:27:34.015Z,18.95
2023-01-27T04:27:56.845Z,19.65
2023-01-27T04:28:29.156Z,19.20
2023-01-27T04:29:00.701Z,20.83
2023-01-27T04:29:24.422Z,18.95
2023-01-27T04:29:47.235Z,20.33
2023-01-27T04:30:11.816Z,20.65
2023-01-27T04:30:34.471Z,19.13
2023-01-27T04:30:59.484Z,19.33
2023-01-27T04:31:22.297Z,20.95
2023-01-27T04:31:45.474Z,19.25
2023-01-27T04:32:09.568Z,19.55
2023-01-27T04:32:32.494Z,19.80
2023-01-27T04:32:55.224Z,19.58
2023-01-27T04:33:18.945Z,19.67
2023-01-27T04:33:41.680Z,18.60
2023-01-27T04:34:04.396Z,19.98
2023-01-27T04:34:27.406Z,20.73
2023-01-27T04:34:50.265Z,20.20
2023-01-27T04:35:13.457Z,20.08
2023-01-27T04:35:38.990Z,20.05
2023-01-27T04:36:02.138Z,19.42
2023-01-27T04:36:24.928Z,19.77
2023-01-27T04:36:47.915Z,19.73
2023-01-27T04:37:10.751Z,19.67
2023-01-27T04:37:33.527Z,21.08
2023-01-27T04:37:56.245Z,19.73
2023-01-27T04:38:19.049Z,20.90
2023-01-27T04:38:41.785Z,20.58
2023-01-27T04:39:04.655Z,19.90
2023-01-27T04:39:27.597Z,20.60
2023-01-27T04:39:50.405Z,21.15
2023-01-27T04:40:14.257Z,20.85
2023-01-27T04:40:37.008Z,20.30
2023-01-27T04:40:59.771Z,21.20
2023-01-27T04:41:22.531Z,21.23
2023-01-27T04:41:45.831Z,21.63
2023-01-27T04:42:08.831Z,22.30
2023-01-27T04:42:33.005Z,20.83
2023-01-27T04:42:55.868Z,21.65
2023-01-27T04:43:18.600Z,21.25
2023-01-27T04:43:41.300Z,21.73
2023-01-27T04:44:05.087Z,20.40
2023-01-27T04:44:27.799Z,20.38
2023-01-27T04:44:50.561Z,20.05
2023-01-27T04:45:13.786Z,21.25
2023-01-27T04:45:37.353Z,21.15
2023-01-27T04:46:00.307Z,20.42
2023-01-27T04:46:23.040Z,21.15
2023-01-27T04:46:45.860Z,20.80
2023-01-27T04:47:08.688Z,21.58
2023-01-27T04:47:31.550Z,20.05
2023-01-27T04:47:54.304Z,19.75
2023-01-27T04:48:16.993Z,19.70
2023-01-27T04:48:39.799Z,20.17
2023-01-27T04:49:02.896Z,20.13
2023-01-27T04:49:27.198Z,20.60
2023-01-27T04:49:50.312Z,20.42
2023-01-27T04:50:13.030Z,21.40
2023-01-27T04:50:35.780Z,20.65
2023-01-27T04:50:58.490Z,21.67
2023-01-27T04:51:21.278Z,22.50
2023-01-27T04:51:46.121Z,20.00
2023-01-27T04:52:09.440Z,19.65
2023-01-27T04:52:32.248Z,20.30
2023-01-27T04:52:55.041Z,20.35
2023-01-27T04:53:17.907Z,19.98
2023-01-27T04:53:40.896Z,19.98
2023-01-27T04:54:05.495Z,19.77
2023-01-27T04:54:28.166Z,19.77
2023-01-27T04:54:50.980Z,19.35
2023-01-27T04:55:14.162Z,20.70
2023-01-27T04:55:37.144Z,20.38
2023-01-27T04:56:02.326Z,19.88
2023-01-27T04:56:27.224Z,20.38
2023-01-27T04:56:57.665Z,20.33
2023-01-27T04:57:20.512Z,19.25
2023-01-27T04:57:44.716Z,19.65
2023-01-27T04:58:07.544Z,20.05
2023-01-27T04:58:30.261Z,20.42
2023-01-27T04:58:53.118Z,20.02
2023-01-27T04:59:16.128Z,18.95
2023-01-27T04:59:38.810Z,19.65
2023-01-27T05:00:01.500Z,19.48
2023-01-27T05:00:24.467Z,20.27
2023-01-27T05:00:47.265Z,20.33
2023-01-27T05:01:10.033Z,20.00
2023-01-27T05:01:32.751Z,20.20
2023-01-27T05:01:55.793Z,20.85
2023-01-27T05:02:18.589Z,20.48
2023-01-27T05:02:41.477Z,20.17
2023-01-27T05:03:06.235Z,20.40
2023-01-27T05:03:28.948Z,20.17
2023-01-27T05:03:51.700Z,21.25
2023-01-27T05:04:14.572Z,20.75
2023-01-27T05:04:37.300Z,20.45
2023-01-27T05:05:00.355Z,20.10
2023-01-27T05:05:23.169Z,21.13
2023-01-27T05:05:45.864Z,20.92
2023-01-27T05:06:09.422Z,21.60
2023-01-27T05:06:32.279Z,21.83
2023-01-27T05:06:55.142Z,20.83
2023-01-27T05:07:17.830Z,22.40
2023-01-27T05:07:40.728Z,22.05
2023-01-27T05:08:04.010Z,21.15
2023-01-27T05:08:26.779Z,22.00
2023-01-27T05:08:49.476Z,20.63
2023-01-27T05:09:12.222Z,21.45
2023-01-27T05:09:34.925Z,20.35
2023-01-27T05:09:57.675Z,20.83
2023-01-27T05:10:21.136Z,20.75
2023-01-27T05:10:45.413Z,20.35
2023-01-27T05:11:08.205Z,21.67
2023-01-27T05:11:31.068Z,22.77
2023-01-27T05:11:53.793Z,20.85
2023-01-27T05:12:16.497Z,20.42
2023-01-27T05:12:39.240Z,19.90
2023-01-27T05:13:03.483Z,20.52
2023-01-27T05:13:26.346Z,21.10
2023-01-27T05:13:49.150Z,20.55
2023-01-27T05:14:14.347Z,22.13
2023-01-27T05:14:37.042Z,21.27
2023-01-27T05:14:59.841Z,21.30
2023-01-27T05:15:24.519Z,20.83
2023-01-27T05:15:48.225Z,20.63
2023-01-27T05:16:12.610Z,21.70
2023-01-27T05:16:35.430Z,22.98
2023-01-27T05:16:58.187Z,22.08
2023-01-27T05:17:21.000Z,21.98
2023-01-27T05:17:43.675Z,23.50
2023-01-27T05:18:06.588Z,22.67